Meath Environmental Platform

Observations for Trim Market St

Time AQI Temp °C Hum % Pres Pa CO μg/m³ H₂S μg/m³ NO μg/m³ NO₂ μg/m³ O₃ μg/m³ SO₂ μg/m³ PM1 μg/m³ PM2.5 μg/m³ PM10 μg/m³
Wednesday 26 August 2026
12:25 2 20.1 77 2,147,483,647 0.19 0 1.2 10.29 41.39 0 9.26 9.86 15.13
12:24 2 20.1 77 2,147,483,647 0.18 0 1.32 9.7 39.3 0 7.13 9.38 13.96
12:23 2 20 77 2,147,483,647 0.22 0 1.23 11.97 37.58 0 8.55 9.85 15.71
12:22 2 20.1 77 2,147,483,647 0.19 0 1.12 9.5 40.88 0 9.26 10.32 14.53
12:21 2 20 78 2,147,483,647 0.22 0 1.15 9.04 40.77 0 8.55 9.36 14.52
12:20 2 20 78 2,147,483,647 0.2 0 1.31 8.83 42.87 0 9.26 10.77 15.67
12:19 2 20 78 2,147,483,647 0.21 0 1.06 9.53 33.39 0 9.26 11.24 17.41
12:18 2 20 78 2,147,483,647 0.24 0 0.96 9.58 40.09 0 8.55 11.23 15.65
12:17 2 19.9 78 2,147,483,647 0.23 0 1.06 13.26 32.52 0 9.98 10.27 14.48
12:16 2 19.9 78 2,147,483,647 0.24 0 1.1 12.58 35.83 0 9.98 10.74 16.79
12:15 2 19.9 78 2,147,483,647 0.24 0 0.83 16.34 34.07 0 9.98 11.21 16.2
12:13 2 19.9 78 2,147,483,647 0.23 0 0.82 11.41 34.6 0 9.98 11.19 17.34
12:11 2 19.8 78 2,147,483,647 0.27 0 0.82 10.15 38.47 0 9.98 11.18 16.75
12:08 2 19.8 79 2,147,483,647 0.23 0 0.72 12.38 35.76 0 9.26 9.74 13.85
12:03 2 19.6 79 2,147,483,647 0.23 0 1.2 13.6 39.05 0 8.55 9.72 13.83
11:58 2 19.6 79 2,147,483,647 0.26 0 0.88 13.65 35.39 0 9.26 12.54 17.24
11:57 2 19.5 80 2,147,483,647 0.29 0 0.99 15.31 33.38 0 10.69 12.06 18.37
11:56 2 19.5 80 2,147,483,647 0.4 0 0.95 15.05 28.09 0 9.26 9.69 13.81
11:55 2 19.5 80 2,147,483,647 0.29 0 0.99 12.09 36.55 0 9.26 9.69 14.37
11:54 2 19.5 80 2,147,483,647 0.26 0 1.01 13.11 34.45 0 7.13 9.67 16.06